• Join FlightAware (Why Join?)
  • Login
  • US Flag 
07:39PM EDT


 

Airport Tracker/Info


-or-


 

Live Flight TrackerFlight Track Log ✈ SWA920 ✈ 25-Apr-2013 ✈ KBNA - KCHS

Flight Track Log - Related Links

Times and Time Zones

All times are in EDT time to prevent confusion due to time zone crossing. See the SWA920 flight status page for this flight to view local times or setup timezone preferences in your user account.

Time Position Orientation Groundspeed Altitude Reporting Facility
EDT Latitude Longitude Course Direction KTS MPH feet Rate Location/Type
05:52PM 36.1667 -86.6167 39° Northeast 186 214 2,700  Level Nashville TRACON
05:53PM 36.1667 -86.5500 90° East 255 293 5,000 2,940 Climbing Nashville TRACON
05:54PM 36.1500 -86.4500 102° East 291 335 8,600 3,360 Climbing Nashville TRACON
05:55PM 36.1281 -86.3739 110° East 359 413 10,900 2,340 Climbing Memphis Center
05:56PM 36.1028 -86.2442 104° East 357 411 12,700 2,400 Climbing Memphis Center
05:57PM 36.0750 -86.0992 103° East 409 471 15,700 2,580 Climbing Memphis Center
05:59PM 36.0500 -85.7850 96° East 515 593 20,800 2,280 Climbing Atlanta Center
06:00PM 36.0378 -85.6153 95° East 491 565 22,900 2,400 Climbing Atlanta Center
06:01PM 36.0189 -85.4431 98° East 496 571 25,700 2,880 Climbing Atlanta Center
06:02PM 35.9433 -85.3083 125° Southeast 469 540 28,700 2,340 Climbing Atlanta Center
06:03PM 35.8547 -85.1789 130° Southeast 475 547 30,400 1,560 Climbing Atlanta Center
06:04PM 35.7642 -85.0469 130° Southeast 496 571 31,900 1,260 Climbing Atlanta Center
06:05PM 35.6692 -84.9103 131° Southeast 510 587 33,000 1,500 Climbing Atlanta Center
06:06PM 35.5639 -84.7536 130° Southeast 532 612 34,900 1,020 Climbing Atlanta Center
06:07PM 35.4667 -84.6150 131° Southeast 532 612 35,100 960 Climbing Atlanta Center
06:08PM 35.3711 -84.4794 131° Southeast 532 612 36,900 900 Climbing Atlanta Center
06:09PM 35.2756 -84.3389 130° Southeast 532 612 37,000  Climbing Atlanta Center
06:10PM 35.1778 -84.2014 131° Southeast 532 612 37,000  Level Atlanta Center
06:11PM 35.0819 -84.0617 130° Southeast 532 612 37,000  Level Atlanta Center
06:12PM 34.9839 -83.9247 131° Southeast 532 612 37,000  Level Atlanta Center
06:13PM 34.8875 -83.7831 130° Southeast 532 612 37,000 -300 Level Atlanta Center
06:14PM 34.7911 -83.6467 131° Southeast 532 612 36,500 -660 Descending Atlanta Center
06:15PM 34.7031 -83.5283 132° Southeast 526 605 35,700 -780 Descending Atlanta Center
06:16PM 34.6064 -83.3903 130° Southeast 531 611 35,000 -360 Descending Atlanta Center
06:17PM 34.5075 -83.2547 131° Southeast 539 620 35,000  Level Atlanta Center
06:18PM 34.4086 -83.1172 131° Southeast 533 613 35,000 -540 Level Atlanta Center
06:19PM 34.3114 -82.9825 131° Southeast 533 613 34,000 -720 Descending Atlanta Center
06:20PM 34.2164 -82.8506 131° Southeast 527 606 33,600 -720 Descending Atlanta Center
06:21PM 34.1106 -82.7042 131° Southeast 528 608 32,600 -960 Descending Atlanta Center
06:22PM 34.0089 -82.5678 132° Southeast 535 616 31,700 -960 Descending Atlanta Center
06:23PM 33.9069 -82.4319 132° Southeast 540 621 30,700 -900 Descending Atlanta Center
06:24PM 33.8092 -82.3011 132° Southeast 532 612 30,000 -900 Descending Atlanta Center
06:27PM 33.5981 -81.8128 117° Southeast 547 629 27,000 -840 Descending Jacksonville Center
06:28PM 33.5486 -81.6489 110° East 541 623 26,700 -720 Descending Jacksonville Center
06:29PM 33.4947 -81.4878 112° Southeast 526 605 25,600 -1,800 Descending Jacksonville Center
06:30PM 33.4447 -81.3319 111° Southeast 514 592 23,100 -2,700 Descending Jacksonville Center
06:31PM 33.3950 -81.1783 111° Southeast 502 578 20,200 -2,700 Descending Jacksonville Center
06:32PM 33.3469 -81.0303 111° Southeast 491 565 17,700 -2,580 Descending Jacksonville Center
06:33PM 33.3008 -80.8894 111° Southeast 471 542 15,100 -2,580 Descending Jacksonville Center
06:34PM 33.2592 -80.7589 111° Southeast 443 510 12,600 -2,100 Descending Jacksonville Center
06:35PM 33.2194 -80.6381 111° Southeast 412 474 11,000 -960 Descending Jacksonville Center
06:36PM 33.1819 -80.5250 112° Southeast 385 443 10,700 -660 Descending Jacksonville Center
06:37PM 33.1486 -80.4239 111° Southeast 352 405 9,700 -1,140 Descending Jacksonville Center
06:38PM 33.0850 -80.3689 144° Southeast 294 338 8,500 -1,320 Descending Jacksonville Center
06:39PM 33.0075 -80.3586 174° South 262 302 7,100 -1,500 Descending Jacksonville Center
06:40PM 32.9319 -80.3458 172° South 267 307 5,600 -1,440 Descending Jacksonville Center
06:41PM 32.8700 -80.3747 201° Southwest 253 291 4,300 -1,920 Descending Jacksonville Center
06:42PM 32.8297 -80.4425 235° Southwest 232 267 1,800 -1,440 Descending Jacksonville Center
06:43PM 32.7806 -80.3944 141° Southeast 186 214 1,500 -300 Descending Jacksonville Center
06:45PM 32.8294 -80.2486 68° East  Level Estimated
06:52PM 32.8986 -80.0405 68° East  Level Estimated
06:53PM 32.8986 -80.0405 121° Southeast  Level Estimated
06:54PM 32.8986 -80.0405 121° Southeast  Level Estimated
06:55PM 32.8986 -80.0405 121° Southeast  Level Estimated
06:56PM 32.8986 -80.0405 121° Southeast  Level Estimated
06:57PM 32.8986 -80.0405 121° Southeast  Level Estimated
06:58PM 32.8986 -80.0405 121° Southeast  Level Estimated
06:59PM 32.8986 -80.0405 121° Southeast  Level Estimated
07:00PM 32.8986 -80.0405 121° Southeast  Level Estimated